createdAt,value
2022-08-16T00:04:11.655Z,20.37423
2022-08-16T00:09:12.857Z,20.28507
2022-08-16T00:14:15.159Z,20.20817
2022-08-16T00:19:16.351Z,20.16714
2022-08-16T00:24:32.203Z,20.1526
2022-08-16T00:29:35.482Z,20.00431
2022-08-16T00:34:44.607Z,19.89802
2022-08-16T00:39:58.234Z,19.95811
2022-08-16T00:44:59.631Z,19.77978
2022-08-16T00:50:01.292Z,19.70224
2022-08-16T00:55:02.214Z,19.73552
2022-08-16T01:00:03.130Z,19.9271
2022-08-16T01:05:11.078Z,19.88348
2022-08-16T01:10:16.425Z,19.83567
2022-08-16T01:15:17.954Z,19.78365
2022-08-16T01:20:24.702Z,19.80756
2022-08-16T01:26:33.524Z,19.80918
2022-08-16T01:31:37.612Z,20.10544
2022-08-16T01:36:43.858Z,19.93905
2022-08-16T01:41:46.393Z,19.69384
2022-08-16T01:46:47.329Z,19.95714
2022-08-16T01:56:49.177Z,19.85311
2022-08-16T02:01:52.559Z,19.53069
2022-08-16T02:07:00.406Z,19.46123
2022-08-16T02:12:50.216Z,19.4945
2022-08-16T02:17:53.210Z,19.63762
2022-08-16T02:22:55.313Z,19.49741
2022-08-16T02:27:56.392Z,19.63827
2022-08-16T02:32:57.307Z,19.77267
2022-08-16T02:38:06.060Z,19.64699
2022-08-16T02:43:09.712Z,19.49127
2022-08-16T02:48:29.708Z,19.32004
2022-08-16T02:53:31.961Z,19.24057
2022-08-16T02:58:32.902Z,19.16432
2022-08-16T03:04:29.926Z,19.11295
2022-08-16T03:09:51.136Z,19.03348
2022-08-16T03:14:52.056Z,18.96757
2022-08-16T03:20:02.370Z,18.9301
2022-08-16T03:25:03.961Z,18.93979
2022-08-16T03:30:15.896Z,18.95303
2022-08-16T03:35:18.684Z,18.93624
2022-08-16T03:40:23.281Z,18.90587
2022-08-16T03:45:34.107Z,18.88551
2022-08-16T03:50:35.607Z,18.81831
2022-08-16T03:55:45.612Z,18.79344
2022-08-16T04:00:47.186Z,18.77502
2022-08-16T04:06:00.006Z,18.73076
2022-08-16T04:11:03.365Z,18.70201
2022-08-16T04:16:04.309Z,18.69458
2022-08-16T04:21:07.558Z,18.68618
2022-08-16T04:26:16.938Z,18.64386
2022-08-16T04:31:18.608Z,18.69393
2022-08-16T04:36:20.728Z,18.7453
2022-08-16T04:41:32.917Z,18.75693
2022-08-16T04:47:00.890Z,18.76436
2022-08-16T04:52:04.428Z,18.85094
2022-08-16T04:57:33.938Z,18.89391
2022-08-16T05:02:42.335Z,18.94528
2022-08-16T05:07:58.658Z,18.97953
2022-08-16T05:13:01.147Z,19.07645
2022-08-16T05:18:03.898Z,19.10908
2022-08-16T05:23:04.819Z,19.26351
2022-08-16T05:28:07.298Z,19.29775
2022-08-16T05:33:16.493Z,19.38272
2022-08-16T05:38:32.448Z,19.4945
2022-08-16T05:43:43.573Z,19.74036
2022-08-16T05:48:55.218Z,19.76588
2022-08-16T05:54:01.408Z,19.78462
2022-08-16T05:59:02.815Z,19.87928
2022-08-16T06:04:13.507Z,20.36066
2022-08-16T06:09:43.394Z,20.56065
2022-08-16T06:14:45.322Z,20.46631
2022-08-16T06:19:46.692Z,20.52931
2022-08-16T06:24:53.294Z,20.65305
2022-08-16T06:29:56.622Z,20.728
2022-08-16T06:35:02.304Z,20.74545
2022-08-16T06:40:04.221Z,20.96126
2022-08-16T06:45:05.242Z,21.28887
2022-08-16T06:50:06.994Z,22.95791
2022-08-16T06:55:07.965Z,22.74564
2022-08-16T07:00:22.002Z,22.5337
2022-08-16T07:05:27.201Z,22.38056
2022-08-16T07:10:42.671Z,22.37571
2022-08-16T07:15:50.365Z,22.27717
2022-08-16T07:20:52.174Z,22.90557
2022-08-16T07:25:53.209Z,23.49488
2022-08-16T07:30:55.358Z,23.51491
2022-08-16T07:35:56.972Z,23.34658
2022-08-16T07:41:00.674Z,23.19214
2022-08-16T07:46:02.230Z,23.09296
2022-08-16T07:51:08.921Z,23.15531
2022-08-16T07:56:10.202Z,23.66643
2022-08-16T08:01:12.655Z,25.05217
2022-08-16T08:06:13.933Z,24.521
2022-08-16T08:11:18.270Z,24.26964
2022-08-16T08:16:19.659Z,24.39371
2022-08-16T08:21:26.200Z,24.61826
2022-08-16T08:26:28.705Z,24.59822
2022-08-16T08:31:30.993Z,24.59564
2022-08-16T08:36:33.526Z,24.65444
2022-08-16T08:41:35.148Z,24.93908
2022-08-16T08:46:36.414Z,25.3436
2022-08-16T08:51:37.377Z,25.53099
2022-08-16T08:56:45.376Z,25.73389
2022-08-16T09:01:57.363Z,27.5846
2022-08-16T09:07:01.419Z,26.40109
2022-08-16T09:12:06.296Z,26.19237
2022-08-16T09:17:12.045Z,26.36296
2022-08-16T09:22:22.711Z,26.56651
2022-08-16T09:27:25.227Z,26.68832
2022-08-16T09:32:30.171Z,26.76166
2022-08-16T09:37:36.375Z,26.8951
2022-08-16T09:42:43.542Z,26.91998
2022-08-16T09:47:58.252Z,27.31933
2022-08-16T09:52:59.649Z,28.18654
2022-08-16T09:58:00.572Z,29.12483
2022-08-16T10:03:01.601Z,28.80044
2022-08-16T10:08:25.512Z,28.42467
2022-08-16T10:13:27.585Z,28.28928
2022-08-16T10:19:00.429Z,28.44922
2022-08-16T10:24:03.428Z,28.772
2022-08-16T10:29:04.829Z,28.89704
2022-08-16T10:34:06.043Z,28.76425
2022-08-16T10:39:42.071Z,28.89931
2022-08-16T10:44:53.457Z,29.20787
2022-08-16T10:49:54.993Z,29.13356
2022-08-16T10:54:59.057Z,29.56297
2022-08-16T11:00:01.228Z,29.52646
2022-08-16T11:05:07.083Z,29.37621
2022-08-16T11:11:04.591Z,29.34939
2022-08-16T11:16:26.868Z,29.48639
2022-08-16T11:21:28.716Z,29.57169
2022-08-16T11:26:30.799Z,29.56168
2022-08-16T11:31:32.827Z,29.78494
2022-08-16T11:36:33.948Z,29.75813
2022-08-16T11:41:35.011Z,29.79108
2022-08-16T11:46:45.120Z,29.6431
2022-08-16T11:51:47.679Z,29.73745
2022-08-16T11:56:53.054Z,29.77784
2022-08-16T12:01:59.389Z,29.70481
2022-08-16T12:07:01.300Z,29.77428
2022-08-16T12:12:02.993Z,30.17106
2022-08-16T12:17:04.242Z,30.44732
2022-08-16T12:22:05.847Z,30.8189
2022-08-16T12:27:20.754Z,31.11584
2022-08-16T12:32:35.909Z,30.90388
2022-08-16T12:37:39.519Z,31.47967
2022-08-16T12:42:53.029Z,31.75173
2022-08-16T12:48:09.971Z,31.93817
2022-08-16T12:53:31.962Z,31.95174
2022-08-16T12:58:49.551Z,31.40438
2022-08-16T13:03:59.148Z,31.07707
2022-08-16T13:09:09.646Z,30.9504
2022-08-16T13:14:30.933Z,31.07965
2022-08-16T13:19:56.378Z,32.38601
2022-08-16T13:25:07.396Z,33.15277
2022-08-16T13:30:11.338Z,33.64198
2022-08-16T13:35:37.703Z,34.2627
2022-08-16T13:40:44.352Z,34.6834
2022-08-16T13:45:45.534Z,34.54769
2022-08-16T13:50:52.301Z,34.21843
2022-08-16T13:55:58.790Z,34.25042
2022-08-16T14:01:00.285Z,34.46045
2022-08-16T14:06:02.808Z,33.77284
2022-08-16T14:11:03.734Z,33.39931
2022-08-16T14:16:04.965Z,33.23226
2022-08-16T14:21:24.683Z,32.88523
2022-08-16T14:26:25.699Z,32.71333
2022-08-16T14:31:26.684Z,33.17442
2022-08-16T14:36:30.005Z,32.50071
2022-08-16T14:41:31.557Z,32.28293
2022-08-16T14:46:32.600Z,32.53852
2022-08-16T14:51:36.083Z,33.17054
2022-08-16T14:56:43.129Z,33.135
2022-08-16T15:01:58.062Z,33.38477
2022-08-16T15:07:00.966Z,33.16182
2022-08-16T15:12:01.989Z,32.41089
2022-08-16T15:17:02.970Z,32.16532
2022-08-16T15:22:04.878Z,32.39667
2022-08-16T15:27:05.802Z,32.61445
2022-08-16T15:32:11.941Z,33.0749
2022-08-16T15:37:42.298Z,32.68683
2022-08-16T15:42:44.025Z,32.04673
2022-08-16T15:47:55.839Z,32.48553
2022-08-16T15:52:57.716Z,32.14755
2022-08-16T15:57:59.341Z,31.95626
2022-08-16T16:03:00.292Z,31.76336
2022-08-16T16:08:11.243Z,31.73654
2022-08-16T16:13:13.945Z,31.81312
2022-08-16T16:18:14.906Z,31.59017
2022-08-16T16:23:15.883Z,31.45188
2022-08-16T16:29:06.058Z,31.14718
2022-08-16T16:34:10.068Z,30.8008
2022-08-16T16:39:12.101Z,30.44603
2022-08-16T16:44:18.191Z,30.43019
2022-08-16T16:49:33.951Z,30.47188
2022-08-16T16:54:34.959Z,30.39788
2022-08-16T16:59:35.844Z,30.42599
2022-08-16T17:04:36.787Z,30.36331
2022-08-16T17:09:40.190Z,30.24117
2022-08-16T17:14:42.654Z,30.11516
2022-08-16T17:19:43.858Z,30.01791
2022-08-16T17:24:50.776Z,29.94197
2022-08-16T17:29:53.834Z,29.78914
2022-08-16T17:34:54.852Z,29.64762
2022-08-16T17:40:06.123Z,29.53001
2022-08-16T17:45:08.986Z,29.43243
2022-08-16T17:50:11.041Z,29.27766
2022-08-16T17:55:13.253Z,29.01789
2022-08-16T18:00:18.321Z,28.75488
2022-08-16T18:05:21.280Z,28.54292
2022-08-16T18:10:32.550Z,28.35908
2022-08-16T18:15:34.691Z,28.25342
2022-08-16T18:20:35.750Z,28.30479
2022-08-16T18:25:36.775Z,28.03694
2022-08-16T18:30:42.674Z,27.76037
2022-08-16T18:35:48.631Z,27.60786
2022-08-16T18:40:54.563Z,27.34292
2022-08-16T18:46:00.558Z,27.10092
2022-08-16T18:51:10.485Z,26.87766
2022-08-16T18:56:20.713Z,26.66958
2022-08-16T19:01:26.723Z,26.52257
2022-08-16T19:06:32.681Z,26.40206
2022-08-16T19:11:38.585Z,26.26248
2022-08-16T19:16:44.519Z,26.14261
2022-08-16T19:21:50.413Z,26.00239
2022-08-16T19:26:56.375Z,25.83147
2022-08-16T19:32:03.133Z,25.67186
2022-08-16T19:37:09.169Z,25.52033
2022-08-16T19:42:10.141Z,25.39691
2022-08-16T19:47:11.073Z,25.35264
2022-08-16T19:52:11.970Z,25.26024
2022-08-16T19:57:12.891Z,25.11937
2022-08-16T20:02:25.608Z,24.94652
2022-08-16T20:07:37.470Z,24.77915
2022-08-16T20:12:38.421Z,24.6777
2022-08-16T20:17:39.489Z,24.66866
2022-08-16T20:22:53.488Z,24.57851
2022-08-16T20:27:54.988Z,24.48708
2022-08-16T20:32:56.025Z,24.41632
2022-08-16T20:37:56.922Z,24.31455
2022-08-16T20:42:58.145Z,24.21698
2022-08-16T20:47:59.312Z,24.16819
2022-08-16T20:53:00.255Z,24.08354
2022-08-16T20:58:01.185Z,24.01925
2022-08-16T21:03:02.136Z,23.97111
2022-08-16T21:08:06.948Z,23.9081
2022-08-16T21:13:52.269Z,23.74688
2022-08-16T21:19:01.109Z,23.64867
2022-08-16T21:24:02.035Z,23.54075
2022-08-16T21:29:02.969Z,23.44771
2022-08-16T21:34:07.628Z,23.40861
2022-08-16T21:39:08.545Z,23.34561
2022-08-16T21:44:09.494Z,23.27615
2022-08-16T21:49:10.551Z,23.17728
2022-08-16T21:54:11.488Z,23.09231
2022-08-16T21:59:12.422Z,22.98052
2022-08-16T22:04:36.824Z,23.14045
2022-08-16T22:09:39.212Z,22.95823
2022-08-16T22:14:40.160Z,22.81187
2022-08-16T22:19:41.111Z,22.73595
2022-08-16T22:24:42.065Z,22.74823
2022-08-16T22:29:43.286Z,22.68458
2022-08-16T22:34:44.219Z,22.61511
2022-08-16T22:39:45.291Z,22.51561
2022-08-16T22:44:46.627Z,22.43936
2022-08-16T22:49:47.904Z,22.37022
2022-08-16T22:54:49.357Z,22.3014
2022-08-16T22:59:52.661Z,22.22192
2022-08-16T23:04:54.674Z,22.17669
2022-08-16T23:09:55.577Z,22.14471
2022-08-16T23:14:56.593Z,22.11821
2022-08-16T23:19:58.105Z,22.00578
2022-08-16T23:24:59.030Z,21.91306
2022-08-16T23:29:59.967Z,21.82938
2022-08-16T23:35:00.882Z,21.80547
2022-08-16T23:40:02.184Z,21.73859
2022-08-16T23:45:03.228Z,21.70144
2022-08-16T23:50:04.401Z,21.66041
2022-08-16T23:55:05.459Z,21.6029
